sensor_id;sensor_type;location;lat;lon;timestamp;P1;durP1;ratioP1;P2;durP2;ratioP2
26377;SDS011;14078;50.974;6.786;2023-06-14T00:00:02;3.70;;;3.40;;
26377;SDS011;14078;50.974;6.786;2023-06-14T00:02:30;3.35;;;3.05;;
26377;SDS011;14078;50.974;6.786;2023-06-14T00:04:57;3.92;;;3.10;;
26377;SDS011;14078;50.974;6.786;2023-06-14T00:07:33;4.50;;;3.25;;
26377;SDS011;14078;50.974;6.786;2023-06-14T00:10:01;4.53;;;3.70;;
26377;SDS011;14078;50.974;6.786;2023-06-14T00:12:30;3.72;;;3.42;;
26377;SDS011;14078;50.974;6.786;2023-06-14T00:14:57;3.35;;;3.05;;
26377;SDS011;14078;50.974;6.786;2023-06-14T00:17:26;3.10;;;2.80;;
26377;SDS011;14078;50.974;6.786;2023-06-14T00:19:55;3.25;;;2.95;;
26377;SDS011;14078;50.974;6.786;2023-06-14T00:22:22;4.82;;;3.72;;
26377;SDS011;14078;50.974;6.786;2023-06-14T00:24:49;3.60;;;3.28;;
26377;SDS011;14078;50.974;6.786;2023-06-14T00:27:16;5.05;;;3.50;;
26377;SDS011;14078;50.974;6.786;2023-06-14T00:29:44;3.70;;;3.40;;
26377;SDS011;14078;50.974;6.786;2023-06-14T00:32:10;3.72;;;3.30;;
26377;SDS011;14078;50.974;6.786;2023-06-14T00:34:37;4.10;;;3.70;;
26377;SDS011;14078;50.974;6.786;2023-06-14T00:37:04;4.28;;;3.33;;
26377;SDS011;14078;50.974;6.786;2023-06-14T00:39:31;7.20;;;4.00;;
26377;SDS011;14078;50.974;6.786;2023-06-14T00:41:58;4.68;;;3.85;;
26377;SDS011;14078;50.974;6.786;2023-06-14T00:44:24;4.43;;;3.40;;
26377;SDS011;14078;50.974;6.786;2023-06-14T00:46:52;3.65;;;3.33;;
26377;SDS011;14078;50.974;6.786;2023-06-14T00:49:19;4.20;;;3.80;;
26377;SDS011;14078;50.974;6.786;2023-06-14T00:51:46;4.22;;;3.38;;
26377;SDS011;14078;50.974;6.786;2023-06-14T00:54:13;3.65;;;3.35;;
26377;SDS011;14078;50.974;6.786;2023-06-14T00:56:39;4.00;;;3.70;;
26377;SDS011;14078;50.974;6.786;2023-06-14T00:59:09;5.18;;;3.90;;
26377;SDS011;14078;50.974;6.786;2023-06-14T01:01:36;4.53;;;4.07;;
26377;SDS011;14078;50.974;6.786;2023-06-14T01:04:05;3.97;;;3.60;;
26377;SDS011;14078;50.974;6.786;2023-06-14T01:06:33;4.78;;;4.38;;
26377;SDS011;14078;50.974;6.786;2023-06-14T01:09:09;4.53;;;3.70;;
26377;SDS011;14078;50.974;6.786;2023-06-14T01:11:47;3.35;;;3.05;;
26377;SDS011;14078;50.974;6.786;2023-06-14T01:14:19;5.10;;;3.70;;
26377;SDS011;14078;50.974;6.786;2023-06-14T01:16:47;5.35;;;4.43;;
26377;SDS011;14078;50.974;6.786;2023-06-14T01:19:19;4.45;;;3.67;;
26377;SDS011;14078;50.974;6.786;2023-06-14T01:21:50;4.57;;;4.03;;
26377;SDS011;14078;50.974;6.786;2023-06-14T01:24:19;4.05;;;3.42;;
26377;SDS011;14078;50.974;6.786;2023-06-14T01:26:50;4.00;;;3.42;;
26377;SDS011;14078;50.974;6.786;2023-06-14T01:29:20;4.63;;;4.15;;
26377;SDS011;14078;50.974;6.786;2023-06-14T01:31:48;3.83;;;3.47;;
26377;SDS011;14078;50.974;6.786;2023-06-14T01:34:16;4.50;;;3.67;;
26377;SDS011;14078;50.974;6.786;2023-06-14T01:36:43;3.72;;;3.42;;
26377;SDS011;14078;50.974;6.786;2023-06-14T01:39:11;3.60;;;3.30;;
26377;SDS011;14078;50.974;6.786;2023-06-14T01:41:42;4.95;;;3.80;;
26377;SDS011;14078;50.974;6.786;2023-06-14T01:44:10;4.45;;;3.30;;
26377;SDS011;14078;50.974;6.786;2023-06-14T01:46:38;3.90;;;3.50;;
26377;SDS011;14078;50.974;6.786;2023-06-14T01:49:06;3.70;;;3.17;;
26377;SDS011;14078;50.974;6.786;2023-06-14T01:51:33;6.20;;;3.63;;
26377;SDS011;14078;50.974;6.786;2023-06-14T01:54:00;3.92;;;3.08;;
26377;SDS011;14078;50.974;6.786;2023-06-14T01:56:27;3.50;;;3.17;;
26377;SDS011;14078;50.974;6.786;2023-06-14T01:58:55;3.63;;;3.33;;
26377;SDS011;14078;50.974;6.786;2023-06-14T02:01:22;3.90;;;3.43;;
26377;SDS011;14078;50.974;6.786;2023-06-14T02:03:48;4.25;;;3.30;;
26377;SDS011;14078;50.974;6.786;2023-06-14T02:06:16;4.75;;;3.67;;
26377;SDS011;14078;50.974;6.786;2023-06-14T02:08:42;4.35;;;3.60;;
26377;SDS011;14078;50.974;6.786;2023-06-14T02:11:09;4.35;;;3.72;;
26377;SDS011;14078;50.974;6.786;2023-06-14T02:13:36;4.32;;;3.92;;
26377;SDS011;14078;50.974;6.786;2023-06-14T02:16:04;4.25;;;3.42;;
26377;SDS011;14078;50.974;6.786;2023-06-14T02:18:32;4.78;;;4.03;;
26377;SDS011;14078;50.974;6.786;2023-06-14T02:20:58;4.60;;;4.10;;
26377;SDS011;14078;50.974;6.786;2023-06-14T02:23:25;3.97;;;3.58;;
26377;SDS011;14078;50.974;6.786;2023-06-14T02:25:52;5.55;;;3.78;;
26377;SDS011;14078;50.974;6.786;2023-06-14T02:28:18;4.13;;;3.70;;
26377;SDS011;14078;50.974;6.786;2023-06-14T02:30:45;4.05;;;3.65;;
26377;SDS011;14078;50.974;6.786;2023-06-14T02:33:13;3.40;;;3.10;;
26377;SDS011;14078;50.974;6.786;2023-06-14T02:35:40;3.50;;;3.13;;
26377;SDS011;14078;50.974;6.786;2023-06-14T02:38:06;4.03;;;3.63;;
26377;SDS011;14078;50.974;6.786;2023-06-14T02:40:33;4.25;;;3.85;;
26377;SDS011;14078;50.974;6.786;2023-06-14T02:42:59;4.25;;;3.40;;
26377;SDS011;14078;50.974;6.786;2023-06-14T02:45:27;3.90;;;3.33;;
26377;SDS011;14078;50.974;6.786;2023-06-14T02:47:53;3.83;;;3.53;;
26377;SDS011;14078;50.974;6.786;2023-06-14T02:50:22;4.22;;;3.83;;
26377;SDS011;14078;50.974;6.786;2023-06-14T02:52:48;5.75;;;4.13;;
26377;SDS011;14078;50.974;6.786;2023-06-14T02:55:15;4.45;;;3.42;;
26377;SDS011;14078;50.974;6.786;2023-06-14T02:57:42;3.97;;;3.58;;
26377;SDS011;14078;50.974;6.786;2023-06-14T03:00:09;4.95;;;3.90;;
26377;SDS011;14078;50.974;6.786;2023-06-14T03:02:38;5.10;;;4.43;;
26377;SDS011;14078;50.974;6.786;2023-06-14T03:05:05;4.30;;;3.90;;
26377;SDS011;14078;50.974;6.786;2023-06-14T03:07:34;4.07;;;3.67;;
26377;SDS011;14078;50.974;6.786;2023-06-14T03:10:06;6.18;;;3.70;;
26377;SDS011;14078;50.974;6.786;2023-06-14T03:12:34;3.65;;;3.35;;
26377;SDS011;14078;50.974;6.786;2023-06-14T03:15:01;5.55;;;3.85;;
26377;SDS011;14078;50.974;6.786;2023-06-14T03:17:28;5.35;;;3.47;;
26377;SDS011;14078;50.974;6.786;2023-06-14T03:22:24;4.25;;;3.22;;
26377;SDS011;14078;50.974;6.786;2023-06-14T03:24:53;4.88;;;3.78;;
26377;SDS011;14078;50.974;6.786;2023-06-14T03:27:20;4.53;;;3.37;;
26377;SDS011;14078;50.974;6.786;2023-06-14T03:29:46;4.72;;;4.05;;
26377;SDS011;14078;50.974;6.786;2023-06-14T03:32:13;4.38;;;3.70;;
26377;SDS011;14078;50.974;6.786;2023-06-14T03:34:40;6.47;;;4.40;;
26377;SDS011;14078;50.974;6.786;2023-06-14T03:37:07;4.57;;;3.83;;
26377;SDS011;14078;50.974;6.786;2023-06-14T03:39:34;4.72;;;4.00;;
26377;SDS011;14078;50.974;6.786;2023-06-14T03:42:03;4.57;;;3.90;;
26377;SDS011;14078;50.974;6.786;2023-06-14T03:44:31;4.00;;;3.63;;
26377;SDS011;14078;50.974;6.786;2023-06-14T03:46:58;6.10;;;3.42;;
26377;SDS011;14078;50.974;6.786;2023-06-14T03:49:24;4.75;;;4.00;;
26377;SDS011;14078;50.974;6.786;2023-06-14T03:51:51;4.40;;;3.85;;
26377;SDS011;14078;50.974;6.786;2023-06-14T03:54:18;3.97;;;3.53;;
26377;SDS011;14078;50.974;6.786;2023-06-14T03:56:44;7.63;;;3.78;;
26377;SDS011;14078;50.974;6.786;2023-06-14T03:59:13;6.20;;;5.47;;
26377;SDS011;14078;50.974;6.786;2023-06-14T04:01:39;5.10;;;4.57;;
26377;SDS011;14078;50.974;6.786;2023-06-14T04:04:11;4.30;;;3.90;;
26377;SDS011;14078;50.974;6.786;2023-06-14T04:06:38;4.60;;;4.13;;
26377;SDS011;14078;50.974;6.786;2023-06-14T04:09:06;4.40;;;3.90;;
26377;SDS011;14078;50.974;6.786;2023-06-14T04:11:32;4.65;;;3.65;;
26377;SDS011;14078;50.974;6.786;2023-06-14T04:13:59;5.15;;;4.28;;
26377;SDS011;14078;50.974;6.786;2023-06-14T04:16:29;4.90;;;4.15;;
26377;SDS011;14078;50.974;6.786;2023-06-14T04:18:55;5.00;;;4.05;;
26377;SDS011;14078;50.974;6.786;2023-06-14T04:21:23;5.03;;;4.55;;
26377;SDS011;14078;50.974;6.786;2023-06-14T04:23:50;5.50;;;4.13;;
26377;SDS011;14078;50.974;6.786;2023-06-14T04:26:19;5.70;;;4.63;;
26377;SDS011;14078;50.974;6.786;2023-06-14T04:28:48;4.63;;;4.13;;
26377;SDS011;14078;50.974;6.786;2023-06-14T04:31:15;5.03;;;4.43;;
26377;SDS011;14078;50.974;6.786;2023-06-14T04:33:45;6.63;;;4.60;;
26377;SDS011;14078;50.974;6.786;2023-06-14T04:36:12;5.22;;;4.63;;
26377;SDS011;14078;50.974;6.786;2023-06-14T04:38:42;4.90;;;4.45;;
26377;SDS011;14078;50.974;6.786;2023-06-14T04:41:10;5.20;;;4.40;;
26377;SDS011;14078;50.974;6.786;2023-06-14T04:43:36;5.05;;;4.55;;
26377;SDS011;14078;50.974;6.786;2023-06-14T04:46:04;6.13;;;4.53;;
26377;SDS011;14078;50.974;6.786;2023-06-14T04:48:34;6.05;;;4.35;;
26377;SDS011;14078;50.974;6.786;2023-06-14T04:51:02;6.47;;;4.70;;
26377;SDS011;14078;50.974;6.786;2023-06-14T04:53:29;4.60;;;4.20;;
26377;SDS011;14078;50.974;6.786;2023-06-14T04:55:56;4.07;;;3.67;;
26377;SDS011;14078;50.974;6.786;2023-06-14T04:58:22;5.20;;;4.53;;
26377;SDS011;14078;50.974;6.786;2023-06-14T05:00:49;6.05;;;4.30;;
26377;SDS011;14078;50.974;6.786;2023-06-14T05:03:16;5.38;;;4.88;;
26377;SDS011;14078;50.974;6.786;2023-06-14T05:05:43;4.72;;;4.30;;
26377;SDS011;14078;50.974;6.786;2023-06-14T05:08:11;5.72;;;4.93;;
26377;SDS011;14078;50.974;6.786;2023-06-14T05:10:38;5.70;;;5.05;;
26377;SDS011;14078;50.974;6.786;2023-06-14T05:13:05;9.98;;;4.90;;
26377;SDS011;14078;50.974;6.786;2023-06-14T05:15:31;6.07;;;4.70;;
26377;SDS011;14078;50.974;6.786;2023-06-14T05:17:59;5.60;;;4.88;;
26377;SDS011;14078;50.974;6.786;2023-06-14T05:20:26;6.70;;;5.68;;
26377;SDS011;14078;50.974;6.786;2023-06-14T05:22:53;7.50;;;5.70;;
26377;SDS011;14078;50.974;6.786;2023-06-14T05:25:23;6.65;;;5.28;;
26377;SDS011;14078;50.974;6.786;2023-06-14T05:27:49;6.60;;;4.70;;
26377;SDS011;14078;50.974;6.786;2023-06-14T05:30:16;5.30;;;4.78;;
26377;SDS011;14078;50.974;6.786;2023-06-14T05:32:43;4.85;;;4.38;;
26377;SDS011;14078;50.974;6.786;2023-06-14T05:35:09;4.15;;;3.75;;
26377;SDS011;14078;50.974;6.786;2023-06-14T05:37:36;5.38;;;4.38;;
26377;SDS011;14078;50.974;6.786;2023-06-14T05:40:03;5.15;;;4.05;;
26377;SDS011;14078;50.974;6.786;2023-06-14T05:42:33;5.67;;;4.03;;
26377;SDS011;14078;50.974;6.786;2023-06-14T05:44:59;4.75;;;3.42;;
26377;SDS011;14078;50.974;6.786;2023-06-14T05:47:26;6.93;;;3.58;;
26377;SDS011;14078;50.974;6.786;2023-06-14T05:49:53;3.95;;;3.65;;
26377;SDS011;14078;50.974;6.786;2023-06-14T05:52:20;4.90;;;4.10;;
26377;SDS011;14078;50.974;6.786;2023-06-14T05:54:47;4.60;;;4.20;;
26377;SDS011;14078;50.974;6.786;2023-06-14T05:57:14;4.15;;;3.75;;
26377;SDS011;14078;50.974;6.786;2023-06-14T05:59:42;4.43;;;3.67;;
26377;SDS011;14078;50.974;6.786;2023-06-14T06:02:09;6.75;;;3.97;;
26377;SDS011;14078;50.974;6.786;2023-06-14T06:04:35;4.28;;;3.35;;
26377;SDS011;14078;50.974;6.786;2023-06-14T06:07:02;4.43;;;2.95;;
26377;SDS011;14078;50.974;6.786;2023-06-14T06:09:30;4.55;;;2.85;;
26377;SDS011;14078;50.974;6.786;2023-06-14T06:11:56;5.78;;;2.45;;
26377;SDS011;14078;50.974;6.786;2023-06-14T06:14:23;3.95;;;2.15;;
26377;SDS011;14078;50.974;6.786;2023-06-14T06:16:51;2.92;;;2.55;;
26377;SDS011;14078;50.974;6.786;2023-06-14T06:19:18;2.45;;;2.25;;
26377;SDS011;14078;50.974;6.786;2023-06-14T06:21:45;2.88;;;2.13;;
26377;SDS011;14078;50.974;6.786;2023-06-14T06:24:11;3.33;;;2.20;;
26377;SDS011;14078;50.974;6.786;2023-06-14T06:26:38;3.72;;;2.00;;
26377;SDS011;14078;50.974;6.786;2023-06-14T06:29:05;4.63;;;1.98;;
26377;SDS011;14078;50.974;6.786;2023-06-14T06:31:32;2.50;;;1.98;;
26377;SDS011;14078;50.974;6.786;2023-06-14T06:34:00;1.98;;;1.77;;
26377;SDS011;14078;50.974;6.786;2023-06-14T06:36:27;2.53;;;2.23;;
26377;SDS011;14078;50.974;6.786;2023-06-14T06:38:54;2.30;;;2.10;;
26377;SDS011;14078;50.974;6.786;2023-06-14T06:41:21;2.47;;;2.28;;
26377;SDS011;14078;50.974;6.786;2023-06-14T06:43:47;2.05;;;1.83;;
26377;SDS011;14078;50.974;6.786;2023-06-14T06:46:14;2.40;;;2.20;;
26377;SDS011;14078;50.974;6.786;2023-06-14T06:48:42;2.42;;;2.15;;
26377;SDS011;14078;50.974;6.786;2023-06-14T06:51:10;1.70;;;1.50;;
26377;SDS011;14078;50.974;6.786;2023-06-14T06:53:38;2.43;;;2.20;;
26377;SDS011;14078;50.974;6.786;2023-06-14T06:56:04;2.00;;;1.70;;
26377;SDS011;14078;50.974;6.786;2023-06-14T06:58:31;2.10;;;1.85;;
26377;SDS011;14078;50.974;6.786;2023-06-14T07:00:58;2.65;;;1.80;;
26377;SDS011;14078;50.974;6.786;2023-06-14T07:03:25;2.00;;;1.80;;
26377;SDS011;14078;50.974;6.786;2023-06-14T07:05:51;4.13;;;2.05;;
26377;SDS011;14078;50.974;6.786;2023-06-14T07:08:19;2.83;;;2.20;;
26377;SDS011;14078;50.974;6.786;2023-06-14T07:10:46;2.22;;;1.95;;
26377;SDS011;14078;50.974;6.786;2023-06-14T07:13:13;2.35;;;2.15;;
26377;SDS011;14078;50.974;6.786;2023-06-14T07:15:40;2.58;;;1.95;;
26377;SDS011;14078;50.974;6.786;2023-06-14T07:18:06;2.20;;;2.00;;
26377;SDS011;14078;50.974;6.786;2023-06-14T07:20:33;2.13;;;1.92;;
26377;SDS011;14078;50.974;6.786;2023-06-14T07:23:02;3.05;;;1.50;;
26377;SDS011;14078;50.974;6.786;2023-06-14T07:25:30;2.00;;;1.63;;
26377;SDS011;14078;50.974;6.786;2023-06-14T07:27:57;2.10;;;1.65;;
26377;SDS011;14078;50.974;6.786;2023-06-14T07:30:24;3.10;;;1.90;;
26377;SDS011;14078;50.974;6.786;2023-06-14T07:32:52;1.70;;;1.60;;
26377;SDS011;14078;50.974;6.786;2023-06-14T07:35:19;3.53;;;1.58;;
26377;SDS011;14078;50.974;6.786;2023-06-14T07:37:46;2.22;;;1.60;;
26377;SDS011;14078;50.974;6.786;2023-06-14T07:40:13;1.85;;;1.52;;
26377;SDS011;14078;50.974;6.786;2023-06-14T07:42:41;1.70;;;1.60;;
26377;SDS011;14078;50.974;6.786;2023-06-14T07:45:08;2.13;;;1.55;;
26377;SDS011;14078;50.974;6.786;2023-06-14T07:47:35;1.33;;;1.23;;
26377;SDS011;14078;50.974;6.786;2023-06-14T07:50:02;2.42;;;1.65;;
26377;SDS011;14078;50.974;6.786;2023-06-14T07:52:29;2.10;;;1.90;;
26377;SDS011;14078;50.974;6.786;2023-06-14T07:54:56;1.80;;;1.20;;
26377;SDS011;14078;50.974;6.786;2023-06-14T07:57:23;2.15;;;1.95;;
26377;SDS011;14078;50.974;6.786;2023-06-14T07:59:51;1.50;;;1.30;;
26377;SDS011;14078;50.974;6.786;2023-06-14T08:02:18;2.90;;;1.33;;
26377;SDS011;14078;50.974;6.786;2023-06-14T08:04:44;1.90;;;1.48;;
26377;SDS011;14078;50.974;6.786;2023-06-14T08:07:11;1.73;;;1.20;;
26377;SDS011;14078;50.974;6.786;2023-06-14T08:09:38;1.90;;;1.40;;
26377;SDS011;14078;50.974;6.786;2023-06-14T08:12:05;1.70;;;1.33;;
26377;SDS011;14078;50.974;6.786;2023-06-14T08:14:34;1.27;;;1.00;;
26377;SDS011;14078;50.974;6.786;2023-06-14T08:17:03;1.23;;;1.10;;
26377;SDS011;14078;50.974;6.786;2023-06-14T08:19:30;1.27;;;1.17;;
26377;SDS011;14078;50.974;6.786;2023-06-14T08:21:57;1.90;;;1.17;;
26377;SDS011;14078;50.974;6.786;2023-06-14T08:24:23;1.80;;;0.95;;
26377;SDS011;14078;50.974;6.786;2023-06-14T08:26:51;0.82;;;0.82;;
26377;SDS011;14078;50.974;6.786;2023-06-14T08:29:18;2.60;;;1.10;;
26377;SDS011;14078;50.974;6.786;2023-06-14T08:31:46;1.58;;;0.95;;
26377;SDS011;14078;50.974;6.786;2023-06-14T08:34:14;0.85;;;0.70;;
26377;SDS011;14078;50.974;6.786;2023-06-14T08:36:41;1.25;;;0.80;;
26377;SDS011;14078;50.974;6.786;2023-06-14T08:39:07;0.85;;;0.80;;
26377;SDS011;14078;50.974;6.786;2023-06-14T08:41:35;0.60;;;0.55;;
26377;SDS011;14078;50.974;6.786;2023-06-14T08:44:02;2.67;;;1.17;;
26377;SDS011;14078;50.974;6.786;2023-06-14T08:46:29;0.82;;;0.68;;
26377;SDS011;14078;50.974;6.786;2023-06-14T08:48:59;0.70;;;0.68;;
26377;SDS011;14078;50.974;6.786;2023-06-14T08:51:29;1.00;;;0.80;;
26377;SDS011;14078;50.974;6.786;2023-06-14T08:53:59;0.80;;;0.68;;
26377;SDS011;14078;50.974;6.786;2023-06-14T08:56:26;1.15;;;0.73;;
26377;SDS011;14078;50.974;6.786;2023-06-14T08:58:54;0.77;;;0.73;;
26377;SDS011;14078;50.974;6.786;2023-06-14T09:01:21;1.83;;;0.90;;
26377;SDS011;14078;50.974;6.786;2023-06-14T09:03:49;1.13;;;0.82;;
26377;SDS011;14078;50.974;6.786;2023-06-14T09:06:16;0.88;;;0.80;;
26377;SDS011;14078;50.974;6.786;2023-06-14T09:08:46;1.50;;;1.25;;
26377;SDS011;14078;50.974;6.786;2023-06-14T09:11:13;1.02;;;0.80;;
26377;SDS011;14078;50.974;6.786;2023-06-14T09:13:43;0.88;;;0.85;;
26377;SDS011;14078;50.974;6.786;2023-06-14T09:16:10;0.70;;;0.70;;
26377;SDS011;14078;50.974;6.786;2023-06-14T09:18:38;0.63;;;0.60;;
26377;SDS011;14078;50.974;6.786;2023-06-14T09:21:06;1.17;;;0.93;;
26377;SDS011;14078;50.974;6.786;2023-06-14T09:23:33;0.68;;;0.57;;
26377;SDS011;14078;50.974;6.786;2023-06-14T09:26:07;1.45;;;1.02;;
26377;SDS011;14078;50.974;6.786;2023-06-14T09:28:34;1.10;;;0.60;;
26377;SDS011;14078;50.974;6.786;2023-06-14T09:31:01;0.73;;;0.68;;
26377;SDS011;14078;50.974;6.786;2023-06-14T09:33:28;2.72;;;0.75;;
26377;SDS011;14078;50.974;6.786;2023-06-14T09:35:56;1.17;;;0.90;;
26377;SDS011;14078;50.974;6.786;2023-06-14T09:38:23;0.70;;;0.70;;
26377;SDS011;14078;50.974;6.786;2023-06-14T09:40:51;0.93;;;0.70;;
26377;SDS011;14078;50.974;6.786;2023-06-14T09:43:19;1.38;;;1.00;;
26377;SDS011;14078;50.974;6.786;2023-06-14T09:45:47;0.80;;;0.80;;
26377;SDS011;14078;50.974;6.786;2023-06-14T09:48:14;1.02;;;0.80;;
26377;SDS011;14078;50.974;6.786;2023-06-14T09:50:42;2.03;;;1.10;;
26377;SDS011;14078;50.974;6.786;2023-06-14T09:53:11;1.23;;;0.85;;
26377;SDS011;14078;50.974;6.786;2023-06-14T09:55:40;1.10;;;0.90;;
26377;SDS011;14078;50.974;6.786;2023-06-14T09:58:08;1.88;;;0.90;;
26377;SDS011;14078;50.974;6.786;2023-06-14T10:03:06;0.82;;;0.70;;
26377;SDS011;14078;50.974;6.786;2023-06-14T10:05:38;1.25;;;0.90;;
26377;SDS011;14078;50.974;6.786;2023-06-14T10:08:08;1.77;;;0.90;;
26377;SDS011;14078;50.974;6.786;2023-06-14T10:10:38;1.10;;;0.85;;
26377;SDS011;14078;50.974;6.786;2023-06-14T10:13:05;1.02;;;0.90;;
26377;SDS011;14078;50.974;6.786;2023-06-14T10:15:33;0.82;;;0.63;;
26377;SDS011;14078;50.974;6.786;2023-06-14T10:18:06;1.00;;;0.90;;
26377;SDS011;14078;50.974;6.786;2023-06-14T10:20:41;0.93;;;0.70;;
26377;SDS011;14078;50.974;6.786;2023-06-14T10:23:12;1.08;;;0.98;;
26377;SDS011;14078;50.974;6.786;2023-06-14T10:25:43;0.82;;;0.70;;
26377;SDS011;14078;50.974;6.786;2023-06-14T10:28:16;1.05;;;0.80;;
26377;SDS011;14078;50.974;6.786;2023-06-14T10:33:31;1.08;;;0.75;;
26377;SDS011;14078;50.974;6.786;2023-06-14T10:36:08;1.27;;;0.82;;
26377;SDS011;14078;50.974;6.786;2023-06-14T10:38:36;1.05;;;0.75;;
26377;SDS011;14078;50.974;6.786;2023-06-14T10:41:03;1.27;;;0.85;;
26377;SDS011;14078;50.974;6.786;2023-06-14T10:43:31;1.10;;;0.90;;
26377;SDS011;14078;50.974;6.786;2023-06-14T10:46:17;1.20;;;0.85;;
26377;SDS011;14078;50.974;6.786;2023-06-14T10:48:49;0.70;;;0.60;;
26377;SDS011;14078;50.974;6.786;2023-06-14T10:51:24;1.23;;;0.98;;
26377;SDS011;14078;50.974;6.786;2023-06-14T10:53:51;1.00;;;0.90;;
26377;SDS011;14078;50.974;6.786;2023-06-14T10:56:27;1.08;;;0.85;;
26377;SDS011;14078;50.974;6.786;2023-06-14T10:58:56;1.13;;;0.90;;
26377;SDS011;14078;50.974;6.786;2023-06-14T11:01:35;1.35;;;0.98;;
26377;SDS011;14078;50.974;6.786;2023-06-14T11:04:08;1.08;;;0.88;;
26377;SDS011;14078;50.974;6.786;2023-06-14T11:06:41;1.00;;;0.90;;
26377;SDS011;14078;50.974;6.786;2023-06-14T11:09:20;1.20;;;0.95;;
26377;SDS011;14078;50.974;6.786;2023-06-14T11:11:59;1.20;;;0.98;;
26377;SDS011;14078;50.974;6.786;2023-06-14T11:14:29;1.10;;;0.93;;
26377;SDS011;14078;50.974;6.786;2023-06-14T11:16:56;2.38;;;1.13;;
26377;SDS011;14078;50.974;6.786;2023-06-14T11:19:25;1.63;;;1.52;;
26377;SDS011;14078;50.974;6.786;2023-06-14T11:21:53;1.48;;;1.25;;
26377;SDS011;14078;50.974;6.786;2023-06-14T11:24:20;1.50;;;1.27;;
26377;SDS011;14078;50.974;6.786;2023-06-14T11:26:47;1.80;;;1.30;;
26377;SDS011;14078;50.974;6.786;2023-06-14T11:29:15;1.92;;;1.00;;
26377;SDS011;14078;50.974;6.786;2023-06-14T11:31:42;1.55;;;1.10;;
26377;SDS011;14078;50.974;6.786;2023-06-14T11:34:11;1.40;;;1.07;;
26377;SDS011;14078;50.974;6.786;2023-06-14T11:36:39;1.10;;;1.00;;
26377;SDS011;14078;50.974;6.786;2023-06-14T11:39:07;1.53;;;1.40;;
26377;SDS011;14078;50.974;6.786;2023-06-14T11:41:35;1.20;;;0.93;;
26377;SDS011;14078;50.974;6.786;2023-06-14T11:44:03;1.40;;;1.27;;
26377;SDS011;14078;50.974;6.786;2023-06-14T11:46:31;4.72;;;1.20;;
26377;SDS011;14078;50.974;6.786;2023-06-14T11:48:57;1.33;;;1.10;;
26377;SDS011;14078;50.974;6.786;2023-06-14T11:51:27;1.13;;;0.85;;
26377;SDS011;14078;50.974;6.786;2023-06-14T11:53:56;1.65;;;1.50;;
26377;SDS011;14078;50.974;6.786;2023-06-14T11:56:23;0.88;;;0.85;;
26377;SDS011;14078;50.974;6.786;2023-06-14T11:58:50;1.60;;;0.90;;
26377;SDS011;14078;50.974;6.786;2023-06-14T12:01:17;1.35;;;1.00;;
26377;SDS011;14078;50.974;6.786;2023-06-14T12:03:47;0.63;;;0.60;;
26377;SDS011;14078;50.974;6.786;2023-06-14T12:06:14;1.48;;;0.95;;
26377;SDS011;14078;50.974;6.786;2023-06-14T12:08:43;1.65;;;1.05;;
26377;SDS011;14078;50.974;6.786;2023-06-14T12:11:12;1.10;;;0.90;;
26377;SDS011;14078;50.974;6.786;2023-06-14T12:13:40;1.23;;;0.93;;
26377;SDS011;14078;50.974;6.786;2023-06-14T12:16:07;1.38;;;1.17;;
26377;SDS011;14078;50.974;6.786;2023-06-14T12:18:34;0.90;;;0.80;;
26377;SDS011;14078;50.974;6.786;2023-06-14T12:21:02;1.05;;;0.85;;
26377;SDS011;14078;50.974;6.786;2023-06-14T12:23:44;0.82;;;0.80;;
26377;SDS011;14078;50.974;6.786;2023-06-14T12:26:14;0.95;;;0.80;;
26377;SDS011;14078;50.974;6.786;2023-06-14T12:28:41;2.97;;;1.00;;
26377;SDS011;14078;50.974;6.786;2023-06-14T12:31:09;1.00;;;0.90;;
26377;SDS011;14078;50.974;6.786;2023-06-14T12:33:37;1.08;;;0.98;;
26377;SDS011;14078;50.974;6.786;2023-06-14T12:36:04;0.90;;;0.68;;
26377;SDS011;14078;50.974;6.786;2023-06-14T12:38:32;1.17;;;0.73;;
26377;SDS011;14078;50.974;6.786;2023-06-14T12:40:59;1.15;;;0.90;;
26377;SDS011;14078;50.974;6.786;2023-06-14T12:43:27;1.20;;;0.88;;
26377;SDS011;14078;50.974;6.786;2023-06-14T12:45:54;0.80;;;0.75;;
26377;SDS011;14078;50.974;6.786;2023-06-14T12:48:21;1.40;;;0.80;;
26377;SDS011;14078;50.974;6.786;2023-06-14T12:50:48;1.00;;;0.90;;
26377;SDS011;14078;50.974;6.786;2023-06-14T12:53:14;0.93;;;0.70;;
26377;SDS011;14078;50.974;6.786;2023-06-14T12:55:42;0.80;;;0.80;;
26377;SDS011;14078;50.974;6.786;2023-06-14T12:58:08;0.98;;;0.70;;
26377;SDS011;14078;50.974;6.786;2023-06-14T13:00:38;1.42;;;0.90;;
26377;SDS011;14078;50.974;6.786;2023-06-14T13:03:05;1.13;;;0.77;;
26377;SDS011;14078;50.974;6.786;2023-06-14T13:05:32;1.67;;;0.90;;
26377;SDS011;14078;50.974;6.786;2023-06-14T13:07:59;0.52;;;0.50;;
26377;SDS011;14078;50.974;6.786;2023-06-14T13:10:26;4.07;;;0.85;;
26377;SDS011;14078;50.974;6.786;2023-06-14T13:12:53;1.00;;;0.90;;
26377;SDS011;14078;50.974;6.786;2023-06-14T13:15:19;1.10;;;0.82;;
26377;SDS011;14078;50.974;6.786;2023-06-14T13:17:47;0.73;;;0.73;;
26377;SDS011;14078;50.974;6.786;2023-06-14T13:20:14;0.85;;;0.70;;
26377;SDS011;14078;50.974;6.786;2023-06-14T13:22:41;1.27;;;0.60;;
26377;SDS011;14078;50.974;6.786;2023-06-14T13:25:08;0.70;;;0.70;;
26377;SDS011;14078;50.974;6.786;2023-06-14T13:27:35;0.80;;;0.75;;
26377;SDS011;14078;50.974;6.786;2023-06-14T13:30:02;0.60;;;0.47;;
26377;SDS011;14078;50.974;6.786;2023-06-14T13:32:30;0.65;;;0.65;;
26377;SDS011;14078;50.974;6.786;2023-06-14T13:34:58;0.80;;;0.60;;
26377;SDS011;14078;50.974;6.786;2023-06-14T13:37:25;0.98;;;0.80;;
26377;SDS011;14078;50.974;6.786;2023-06-14T13:39:51;0.88;;;0.88;;
26377;SDS011;14078;50.974;6.786;2023-06-14T13:42:18;2.03;;;0.77;;
26377;SDS011;14078;50.974;6.786;2023-06-14T13:44:45;1.25;;;0.70;;
26377;SDS011;14078;50.974;6.786;2023-06-14T13:47:11;0.68;;;0.60;;
26377;SDS011;14078;50.974;6.786;2023-06-14T13:49:38;0.98;;;0.80;;
26377;SDS011;14078;50.974;6.786;2023-06-14T13:52:07;1.38;;;0.60;;
26377;SDS011;14078;50.974;6.786;2023-06-14T13:54:34;0.80;;;0.73;;
26377;SDS011;14078;50.974;6.786;2023-06-14T13:57:01;0.60;;;0.60;;
26377;SDS011;14078;50.974;6.786;2023-06-14T13:59:27;1.33;;;0.80;;
26377;SDS011;14078;50.974;6.786;2023-06-14T14:01:54;0.82;;;0.82;;
26377;SDS011;14078;50.974;6.786;2023-06-14T14:04:21;0.90;;;0.73;;
26377;SDS011;14078;50.974;6.786;2023-06-14T14:06:47;1.15;;;0.77;;
26377;SDS011;14078;50.974;6.786;2023-06-14T14:09:15;1.58;;;0.70;;
26377;SDS011;14078;50.974;6.786;2023-06-14T14:11:42;0.83;;;0.73;;
26377;SDS011;14078;50.974;6.786;2023-06-14T14:14:09;1.40;;;1.00;;
26377;SDS011;14078;50.974;6.786;2023-06-14T14:16:36;0.70;;;0.70;;
26377;SDS011;14078;50.974;6.786;2023-06-14T14:19:03;0.90;;;0.73;;
26377;SDS011;14078;50.974;6.786;2023-06-14T14:21:30;0.90;;;0.90;;
26377;SDS011;14078;50.974;6.786;2023-06-14T14:23:57;0.77;;;0.77;;
26377;SDS011;14078;50.974;6.786;2023-06-14T14:26:25;1.20;;;1.10;;
26377;SDS011;14078;50.974;6.786;2023-06-14T14:28:52;1.17;;;0.80;;
26377;SDS011;14078;50.974;6.786;2023-06-14T14:31:18;1.58;;;1.25;;
26377;SDS011;14078;50.974;6.786;2023-06-14T14:33:45;1.25;;;1.00;;
26377;SDS011;14078;50.974;6.786;2023-06-14T14:36:12;1.27;;;0.90;;
26377;SDS011;14078;50.974;6.786;2023-06-14T14:38:39;1.10;;;1.00;;
26377;SDS011;14078;50.974;6.786;2023-06-14T14:41:05;0.90;;;0.90;;
26377;SDS011;14078;50.974;6.786;2023-06-14T14:43:33;1.67;;;0.95;;
26377;SDS011;14078;50.974;6.786;2023-06-14T14:46:00;1.00;;;0.88;;
26377;SDS011;14078;50.974;6.786;2023-06-14T14:48:26;3.08;;;1.00;;
26377;SDS011;14078;50.974;6.786;2023-06-14T14:50:53;0.80;;;0.80;;
26377;SDS011;14078;50.974;6.786;2023-06-14T14:53:20;3.38;;;0.98;;
26377;SDS011;14078;50.974;6.786;2023-06-14T14:55:46;1.23;;;1.05;;
26377;SDS011;14078;50.974;6.786;2023-06-14T14:58:13;1.30;;;0.90;;